sensor_id;sensor_type;location;lat;lon;timestamp;P1;durP1;ratioP1;P2;durP2;ratioP2
16254;SDS011;8235;52.198;9.904;2023-05-15T00:02:13;9.30;;;8.27;;
16254;SDS011;8235;52.198;9.904;2023-05-15T00:04:39;8.40;;;7.03;;
16254;SDS011;8235;52.198;9.904;2023-05-15T00:07:06;7.53;;;6.83;;
16254;SDS011;8235;52.198;9.904;2023-05-15T00:09:34;7.53;;;6.73;;
16254;SDS011;8235;52.198;9.904;2023-05-15T00:12:00;6.97;;;6.40;;
16254;SDS011;8235;52.198;9.904;2023-05-15T00:14:27;7.77;;;7.03;;
16254;SDS011;8235;52.198;9.904;2023-05-15T00:16:53;7.77;;;6.97;;
16254;SDS011;8235;52.198;9.904;2023-05-15T00:19:20;7.23;;;6.63;;
16254;SDS011;8235;52.198;9.904;2023-05-15T00:21:46;7.27;;;6.50;;
16254;SDS011;8235;52.198;9.904;2023-05-15T00:24:13;7.47;;;6.73;;
16254;SDS011;8235;52.198;9.904;2023-05-15T00:26:40;7.40;;;6.70;;
16254;SDS011;8235;52.198;9.904;2023-05-15T00:29:07;8.57;;;6.90;;
16254;SDS011;8235;52.198;9.904;2023-05-15T00:31:33;7.70;;;6.90;;
16254;SDS011;8235;52.198;9.904;2023-05-15T00:34:00;7.93;;;7.13;;
16254;SDS011;8235;52.198;9.904;2023-05-15T00:36:26;7.37;;;6.67;;
16254;SDS011;8235;52.198;9.904;2023-05-15T00:38:53;8.30;;;7.50;;
16254;SDS011;8235;52.198;9.904;2023-05-15T00:41:20;8.33;;;7.43;;
16254;SDS011;8235;52.198;9.904;2023-05-15T00:43:49;8.10;;;7.30;;
16254;SDS011;8235;52.198;9.904;2023-05-15T00:46:16;7.57;;;6.87;;
16254;SDS011;8235;52.198;9.904;2023-05-15T00:48:45;8.67;;;7.07;;
16254;SDS011;8235;52.198;9.904;2023-05-15T00:51:13;7.73;;;6.97;;
16254;SDS011;8235;52.198;9.904;2023-05-15T00:53:40;7.70;;;6.90;;
16254;SDS011;8235;52.198;9.904;2023-05-15T00:56:07;7.83;;;7.03;;
16254;SDS011;8235;52.198;9.904;2023-05-15T00:58:36;8.07;;;7.37;;
16254;SDS011;8235;52.198;9.904;2023-05-15T01:01:04;7.57;;;6.87;;
16254;SDS011;8235;52.198;9.904;2023-05-15T01:03:31;7.50;;;6.80;;
16254;SDS011;8235;52.198;9.904;2023-05-15T01:05:57;7.53;;;6.73;;
16254;SDS011;8235;52.198;9.904;2023-05-15T01:08:25;7.67;;;6.97;;
16254;SDS011;8235;52.198;9.904;2023-05-15T01:10:55;7.70;;;6.53;;
16254;SDS011;8235;52.198;9.904;2023-05-15T01:13:24;9.80;;;7.37;;
16254;SDS011;8235;52.198;9.904;2023-05-15T01:15:50;8.47;;;7.10;;
16254;SDS011;8235;52.198;9.904;2023-05-15T01:18:18;7.63;;;6.93;;
16254;SDS011;8235;52.198;9.904;2023-05-15T01:20:49;7.93;;;7.17;;
16254;SDS011;8235;52.198;9.904;2023-05-15T01:23:37;7.90;;;7.10;;
16254;SDS011;8235;52.198;9.904;2023-05-15T01:26:30;7.13;;;6.47;;
16254;SDS011;8235;52.198;9.904;2023-05-15T01:29:31;8.83;;;6.63;;
16254;SDS011;8235;52.198;9.904;2023-05-15T01:32:08;7.87;;;7.17;;
16254;SDS011;8235;52.198;9.904;2023-05-15T01:34:41;8.47;;;7.13;;
16254;SDS011;8235;52.198;9.904;2023-05-15T01:37:11;7.57;;;6.87;;
16254;SDS011;8235;52.198;9.904;2023-05-15T01:39:44;7.43;;;6.73;;
16254;SDS011;8235;52.198;9.904;2023-05-15T01:42:15;8.27;;;7.10;;
16254;SDS011;8235;52.198;9.904;2023-05-15T01:44:48;7.43;;;6.43;;
16254;SDS011;8235;52.198;9.904;2023-05-15T01:47:20;7.77;;;6.90;;
16254;SDS011;8235;52.198;9.904;2023-05-15T01:49:51;7.80;;;7.17;;
16254;SDS011;8235;52.198;9.904;2023-05-15T01:52:22;7.73;;;7.03;;
16254;SDS011;8235;52.198;9.904;2023-05-15T01:54:51;7.07;;;6.40;;
16254;SDS011;8235;52.198;9.904;2023-05-15T01:57:19;7.80;;;7.10;;
16254;SDS011;8235;52.198;9.904;2023-05-15T01:59:48;8.17;;;7.40;;
16254;SDS011;8235;52.198;9.904;2023-05-15T02:02:16;8.73;;;7.83;;
16254;SDS011;8235;52.198;9.904;2023-05-15T02:04:44;8.30;;;7.60;;
16254;SDS011;8235;52.198;9.904;2023-05-15T02:07:11;8.40;;;7.60;;
16254;SDS011;8235;52.198;9.904;2023-05-15T02:09:38;8.00;;;7.03;;
16254;SDS011;8235;52.198;9.904;2023-05-15T02:12:06;9.57;;;8.13;;
16254;SDS011;8235;52.198;9.904;2023-05-15T02:14:34;8.83;;;7.93;;
16254;SDS011;8235;52.198;9.904;2023-05-15T02:17:03;8.47;;;7.20;;
16254;SDS011;8235;52.198;9.904;2023-05-15T02:19:30;7.83;;;7.13;;
16254;SDS011;8235;52.198;9.904;2023-05-15T02:21:57;8.30;;;7.57;;
16254;SDS011;8235;52.198;9.904;2023-05-15T02:24:24;8.00;;;7.37;;
16254;SDS011;8235;52.198;9.904;2023-05-15T02:26:54;8.13;;;7.43;;
16254;SDS011;8235;52.198;9.904;2023-05-15T02:29:27;8.70;;;7.90;;
16254;SDS011;8235;52.198;9.904;2023-05-15T02:32:02;7.90;;;7.20;;
16254;SDS011;8235;52.198;9.904;2023-05-15T02:34:41;8.07;;;7.37;;
16254;SDS011;8235;52.198;9.904;2023-05-15T02:37:17;7.87;;;7.17;;
16254;SDS011;8235;52.198;9.904;2023-05-15T02:39:47;7.90;;;7.20;;
16254;SDS011;8235;52.198;9.904;2023-05-15T02:42:17;8.53;;;7.60;;
16254;SDS011;8235;52.198;9.904;2023-05-15T02:44:45;8.47;;;7.50;;
16254;SDS011;8235;52.198;9.904;2023-05-15T02:47:15;8.47;;;7.67;;
16254;SDS011;8235;52.198;9.904;2023-05-15T02:49:42;9.40;;;8.50;;
16254;SDS011;8235;52.198;9.904;2023-05-15T02:52:10;8.67;;;7.87;;
16254;SDS011;8235;52.198;9.904;2023-05-15T02:54:36;8.80;;;8.10;;
16254;SDS011;8235;52.198;9.904;2023-05-15T02:57:03;9.03;;;8.23;;
16254;SDS011;8235;52.198;9.904;2023-05-15T02:59:32;9.03;;;7.67;;
16254;SDS011;8235;52.198;9.904;2023-05-15T03:02:00;9.10;;;8.30;;
16254;SDS011;8235;52.198;9.904;2023-05-15T03:04:28;8.87;;;8.07;;
16254;SDS011;8235;52.198;9.904;2023-05-15T03:06:55;8.13;;;7.43;;
16254;SDS011;8235;52.198;9.904;2023-05-15T03:09:21;8.27;;;7.57;;
16254;SDS011;8235;52.198;9.904;2023-05-15T03:11:49;7.73;;;7.03;;
16254;SDS011;8235;52.198;9.904;2023-05-15T03:14:15;8.67;;;7.87;;
16254;SDS011;8235;52.198;9.904;2023-05-15T03:16:42;8.03;;;7.33;;
16254;SDS011;8235;52.198;9.904;2023-05-15T03:19:08;12.93;;;8.10;;
16254;SDS011;8235;52.198;9.904;2023-05-15T03:21:36;8.50;;;7.33;;
16254;SDS011;8235;52.198;9.904;2023-05-15T03:24:03;8.13;;;7.40;;
16254;SDS011;8235;52.198;9.904;2023-05-15T03:26:30;7.60;;;6.90;;
16254;SDS011;8235;52.198;9.904;2023-05-15T03:28:56;9.23;;;8.27;;
16254;SDS011;8235;52.198;9.904;2023-05-15T03:31:23;8.27;;;7.50;;
16254;SDS011;8235;52.198;9.904;2023-05-15T03:33:49;8.80;;;7.90;;
16254;SDS011;8235;52.198;9.904;2023-05-15T03:36:16;8.27;;;7.47;;
16254;SDS011;8235;52.198;9.904;2023-05-15T03:38:43;8.53;;;7.83;;
16254;SDS011;8235;52.198;9.904;2023-05-15T03:41:10;10.23;;;7.90;;
16254;SDS011;8235;52.198;9.904;2023-05-15T03:43:36;8.43;;;7.73;;
16254;SDS011;8235;52.198;9.904;2023-05-15T03:46:03;8.77;;;7.97;;
16254;SDS011;8235;52.198;9.904;2023-05-15T03:48:30;8.70;;;8.00;;
16254;SDS011;8235;52.198;9.904;2023-05-15T03:50:56;8.93;;;8.10;;
16254;SDS011;8235;52.198;9.904;2023-05-15T03:53:23;8.60;;;7.80;;
16254;SDS011;8235;52.198;9.904;2023-05-15T03:55:51;8.93;;;8.13;;
16254;SDS011;8235;52.198;9.904;2023-05-15T03:58:17;9.70;;;8.53;;
16254;SDS011;8235;52.198;9.904;2023-05-15T04:00:44;10.43;;;8.67;;
16254;SDS011;8235;52.198;9.904;2023-05-15T04:03:10;10.13;;;8.77;;
16254;SDS011;8235;52.198;9.904;2023-05-15T04:05:36;9.53;;;8.73;;
16254;SDS011;8235;52.198;9.904;2023-05-15T04:08:03;12.53;;;8.60;;
16254;SDS011;8235;52.198;9.904;2023-05-15T04:10:30;8.77;;;7.87;;
16254;SDS011;8235;52.198;9.904;2023-05-15T04:12:59;9.40;;;8.50;;
16254;SDS011;8235;52.198;9.904;2023-05-15T04:15:25;8.97;;;8.17;;
16254;SDS011;8235;52.198;9.904;2023-05-15T04:17:52;7.97;;;7.17;;
16254;SDS011;8235;52.198;9.904;2023-05-15T04:20:19;9.83;;;7.97;;
16254;SDS011;8235;52.198;9.904;2023-05-15T04:22:47;8.83;;;7.80;;
16254;SDS011;8235;52.198;9.904;2023-05-15T04:25:14;8.10;;;7.33;;
16254;SDS011;8235;52.198;9.904;2023-05-15T04:27:42;9.10;;;8.27;;
16254;SDS011;8235;52.198;9.904;2023-05-15T04:30:11;9.40;;;8.50;;
16254;SDS011;8235;52.198;9.904;2023-05-15T04:32:42;9.30;;;8.50;;
16254;SDS011;8235;52.198;9.904;2023-05-15T04:35:09;8.73;;;7.90;;
16254;SDS011;8235;52.198;9.904;2023-05-15T04:37:37;8.70;;;7.80;;
16254;SDS011;8235;52.198;9.904;2023-05-15T04:40:05;8.50;;;7.63;;
16254;SDS011;8235;52.198;9.904;2023-05-15T04:42:33;7.87;;;7.13;;
16254;SDS011;8235;52.198;9.904;2023-05-15T04:45:00;8.07;;;7.27;;
16254;SDS011;8235;52.198;9.904;2023-05-15T04:47:28;8.70;;;7.93;;
16254;SDS011;8235;52.198;9.904;2023-05-15T04:49:55;8.47;;;7.40;;
16254;SDS011;8235;52.198;9.904;2023-05-15T04:52:22;7.93;;;7.13;;
16254;SDS011;8235;52.198;9.904;2023-05-15T04:54:48;8.13;;;7.43;;
16254;SDS011;8235;52.198;9.904;2023-05-15T04:57:17;8.17;;;7.23;;
16254;SDS011;8235;52.198;9.904;2023-05-15T04:59:43;7.83;;;7.13;;
16254;SDS011;8235;52.198;9.904;2023-05-15T05:02:10;8.27;;;7.27;;
16254;SDS011;8235;52.198;9.904;2023-05-15T05:04:40;8.27;;;7.57;;
16254;SDS011;8235;52.198;9.904;2023-05-15T05:07:08;7.57;;;6.90;;
16254;SDS011;8235;52.198;9.904;2023-05-15T05:09:34;9.30;;;7.50;;
16254;SDS011;8235;52.198;9.904;2023-05-15T05:12:01;10.07;;;8.43;;
16254;SDS011;8235;52.198;9.904;2023-05-15T05:14:28;9.50;;;8.53;;
16254;SDS011;8235;52.198;9.904;2023-05-15T05:16:55;9.63;;;8.70;;
16254;SDS011;8235;52.198;9.904;2023-05-15T05:19:22;9.53;;;8.73;;
16254;SDS011;8235;52.198;9.904;2023-05-15T05:21:50;9.70;;;8.70;;
16254;SDS011;8235;52.198;9.904;2023-05-15T05:24:16;9.63;;;8.73;;
16254;SDS011;8235;52.198;9.904;2023-05-15T05:26:43;9.60;;;8.80;;
16254;SDS011;8235;52.198;9.904;2023-05-15T05:29:10;8.73;;;7.93;;
16254;SDS011;8235;52.198;9.904;2023-05-15T05:31:36;9.43;;;8.53;;
16254;SDS011;8235;52.198;9.904;2023-05-15T05:34:03;9.27;;;8.50;;
16254;SDS011;8235;52.198;9.904;2023-05-15T05:36:30;10.20;;;9.20;;
16254;SDS011;8235;52.198;9.904;2023-05-15T05:38:58;9.73;;;8.80;;
16254;SDS011;8235;52.198;9.904;2023-05-15T05:41:25;11.83;;;8.93;;
16254;SDS011;8235;52.198;9.904;2023-05-15T05:43:51;8.97;;;8.07;;
16254;SDS011;8235;52.198;9.904;2023-05-15T05:46:18;9.57;;;8.57;;
16254;SDS011;8235;52.198;9.904;2023-05-15T05:48:45;10.00;;;9.10;;
16254;SDS011;8235;52.198;9.904;2023-05-15T05:51:11;9.23;;;8.43;;
16254;SDS011;8235;52.198;9.904;2023-05-15T05:53:38;9.50;;;8.60;;
16254;SDS011;8235;52.198;9.904;2023-05-15T05:56:06;9.83;;;8.73;;
16254;SDS011;8235;52.198;9.904;2023-05-15T05:58:33;9.70;;;8.80;;
16254;SDS011;8235;52.198;9.904;2023-05-15T06:00:59;10.00;;;9.00;;
16254;SDS011;8235;52.198;9.904;2023-05-15T06:03:26;14.47;;;9.07;;
16254;SDS011;8235;52.198;9.904;2023-05-15T06:05:53;10.10;;;9.20;;
16254;SDS011;8235;52.198;9.904;2023-05-15T06:08:20;10.13;;;9.23;;
16254;SDS011;8235;52.198;9.904;2023-05-15T06:10:46;9.93;;;9.00;;
16254;SDS011;8235;52.198;9.904;2023-05-15T06:13:14;10.50;;;9.40;;
16254;SDS011;8235;52.198;9.904;2023-05-15T06:15:42;10.90;;;9.87;;
16254;SDS011;8235;52.198;9.904;2023-05-15T06:18:09;10.63;;;9.60;;
16254;SDS011;8235;52.198;9.904;2023-05-15T06:20:36;9.70;;;8.80;;
16254;SDS011;8235;52.198;9.904;2023-05-15T06:23:02;10.17;;;9.27;;
16254;SDS011;8235;52.198;9.904;2023-05-15T06:25:29;10.60;;;9.60;;
16254;SDS011;8235;52.198;9.904;2023-05-15T06:27:56;10.57;;;9.67;;
16254;SDS011;8235;52.198;9.904;2023-05-15T06:30:24;10.73;;;9.63;;
16254;SDS011;8235;52.198;9.904;2023-05-15T06:32:51;10.47;;;9.40;;
16254;SDS011;8235;52.198;9.904;2023-05-15T06:35:18;10.63;;;9.40;;
16254;SDS011;8235;52.198;9.904;2023-05-15T06:37:44;11.20;;;10.10;;
16254;SDS011;8235;52.198;9.904;2023-05-15T06:40:14;10.47;;;9.47;;
16254;SDS011;8235;52.198;9.904;2023-05-15T06:42:41;10.77;;;9.67;;
16254;SDS011;8235;52.198;9.904;2023-05-15T06:45:08;11.07;;;10.03;;
16254;SDS011;8235;52.198;9.904;2023-05-15T06:47:36;11.33;;;10.20;;
16254;SDS011;8235;52.198;9.904;2023-05-15T06:50:03;11.57;;;10.57;;
16254;SDS011;8235;52.198;9.904;2023-05-15T06:52:30;11.33;;;10.20;;
16254;SDS011;8235;52.198;9.904;2023-05-15T06:54:57;10.17;;;9.33;;
16254;SDS011;8235;52.198;9.904;2023-05-15T06:57:23;11.20;;;10.10;;
16254;SDS011;8235;52.198;9.904;2023-05-15T06:59:50;13.53;;;9.83;;
16254;SDS011;8235;52.198;9.904;2023-05-15T07:02:16;10.70;;;9.50;;
16254;SDS011;8235;52.198;9.904;2023-05-15T07:04:44;10.00;;;9.10;;
16254;SDS011;8235;52.198;9.904;2023-05-15T07:07:11;9.97;;;9.07;;
16254;SDS011;8235;52.198;9.904;2023-05-15T07:09:38;11.07;;;9.97;;
16254;SDS011;8235;52.198;9.904;2023-05-15T07:12:05;10.37;;;8.97;;
16254;SDS011;8235;52.198;9.904;2023-05-15T07:14:32;10.10;;;9.10;;
16254;SDS011;8235;52.198;9.904;2023-05-15T07:16:59;8.93;;;8.07;;
16254;SDS011;8235;52.198;9.904;2023-05-15T07:19:25;9.83;;;8.87;;
16254;SDS011;8235;52.198;9.904;2023-05-15T07:21:53;10.03;;;9.13;;
16254;SDS011;8235;52.198;9.904;2023-05-15T07:24:20;10.80;;;9.70;;
16254;SDS011;8235;52.198;9.904;2023-05-15T07:26:46;10.27;;;9.37;;
16254;SDS011;8235;52.198;9.904;2023-05-15T07:29:13;10.63;;;9.70;;
16254;SDS011;8235;52.198;9.904;2023-05-15T07:31:39;10.97;;;9.87;;
16254;SDS011;8235;52.198;9.904;2023-05-15T07:34:08;10.30;;;9.40;;
16254;SDS011;8235;52.198;9.904;2023-05-15T07:36:35;10.17;;;9.37;;
16254;SDS011;8235;52.198;9.904;2023-05-15T07:39:03;10.80;;;9.73;;
16254;SDS011;8235;52.198;9.904;2023-05-15T07:41:30;10.87;;;9.87;;
16254;SDS011;8235;52.198;9.904;2023-05-15T07:43:57;10.47;;;9.10;;
16254;SDS011;8235;52.198;9.904;2023-05-15T07:46:24;10.07;;;9.27;;
16254;SDS011;8235;52.198;9.904;2023-05-15T07:48:50;9.93;;;8.93;;
16254;SDS011;8235;52.198;9.904;2023-05-15T07:51:17;9.90;;;8.97;;
16254;SDS011;8235;52.198;9.904;2023-05-15T07:53:44;10.70;;;9.77;;
16254;SDS011;8235;52.198;9.904;2023-05-15T07:56:11;10.40;;;9.50;;
16254;SDS011;8235;52.198;9.904;2023-05-15T07:58:38;10.13;;;9.23;;
16254;SDS011;8235;52.198;9.904;2023-05-15T08:01:05;10.37;;;9.37;;
16254;SDS011;8235;52.198;9.904;2023-05-15T08:03:31;10.27;;;9.10;;
16254;SDS011;8235;52.198;9.904;2023-05-15T08:05:58;9.93;;;9.03;;
16254;SDS011;8235;52.198;9.904;2023-05-15T08:08:24;10.37;;;9.33;;
16254;SDS011;8235;52.198;9.904;2023-05-15T08:10:51;11.20;;;8.90;;
16254;SDS011;8235;52.198;9.904;2023-05-15T08:13:19;10.50;;;9.07;;
16254;SDS011;8235;52.198;9.904;2023-05-15T08:15:45;9.33;;;8.53;;
16254;SDS011;8235;52.198;9.904;2023-05-15T08:18:12;10.00;;;9.00;;
16254;SDS011;8235;52.198;9.904;2023-05-15T08:20:38;10.67;;;9.67;;
16254;SDS011;8235;52.198;9.904;2023-05-15T08:23:05;10.27;;;9.47;;
16254;SDS011;8235;52.198;9.904;2023-05-15T08:25:31;10.03;;;8.80;;
16254;SDS011;8235;52.198;9.904;2023-05-15T08:27:58;9.83;;;8.83;;
16254;SDS011;8235;52.198;9.904;2023-05-15T08:30:26;9.53;;;8.63;;
16254;SDS011;8235;52.198;9.904;2023-05-15T08:32:52;10.80;;;8.60;;
16254;SDS011;8235;52.198;9.904;2023-05-15T08:35:19;12.27;;;8.50;;
16254;SDS011;8235;52.198;9.904;2023-05-15T08:37:45;9.27;;;8.47;;
16254;SDS011;8235;52.198;9.904;2023-05-15T08:40:12;9.90;;;8.57;;
16254;SDS011;8235;52.198;9.904;2023-05-15T08:42:41;8.80;;;8.00;;
16254;SDS011;8235;52.198;9.904;2023-05-15T08:45:09;9.23;;;8.33;;
16254;SDS011;8235;52.198;9.904;2023-05-15T08:47:39;8.57;;;7.70;;
16254;SDS011;8235;52.198;9.904;2023-05-15T08:50:07;8.83;;;7.97;;
16254;SDS011;8235;52.198;9.904;2023-05-15T08:52:36;7.73;;;7.03;;
16254;SDS011;8235;52.198;9.904;2023-05-15T08:55:05;8.97;;;8.17;;
16254;SDS011;8235;52.198;9.904;2023-05-15T08:57:32;8.53;;;7.67;;
16254;SDS011;8235;52.198;9.904;2023-05-15T09:00:00;8.63;;;7.80;;
16254;SDS011;8235;52.198;9.904;2023-05-15T09:02:30;11.27;;;7.10;;
16254;SDS011;8235;52.198;9.904;2023-05-15T09:04:58;7.87;;;6.93;;
16254;SDS011;8235;52.198;9.904;2023-05-15T09:07:25;8.50;;;7.70;;
16254;SDS011;8235;52.198;9.904;2023-05-15T09:09:51;7.00;;;6.30;;
16254;SDS011;8235;52.198;9.904;2023-05-15T09:12:19;8.20;;;7.37;;
16254;SDS011;8235;52.198;9.904;2023-05-15T09:14:49;8.20;;;7.40;;
16254;SDS011;8235;52.198;9.904;2023-05-15T09:17:15;7.37;;;6.77;;
16254;SDS011;8235;52.198;9.904;2023-05-15T09:19:42;9.10;;;6.43;;
16254;SDS011;8235;52.198;9.904;2023-05-15T09:22:14;8.43;;;7.30;;
16254;SDS011;8235;52.198;9.904;2023-05-15T09:24:43;6.63;;;5.97;;
16254;SDS011;8235;52.198;9.904;2023-05-15T09:27:12;9.32;;;7.13;;
16254;SDS011;8235;52.198;9.904;2023-05-15T09:29:38;7.80;;;7.10;;
16254;SDS011;8235;52.198;9.904;2023-05-15T09:32:06;7.20;;;6.57;;
16254;SDS011;8235;52.198;9.904;2023-05-15T09:34:34;6.80;;;5.68;;
16254;SDS011;8235;52.198;9.904;2023-05-15T09:37:02;8.57;;;6.80;;
16254;SDS011;8235;52.198;9.904;2023-05-15T09:39:31;7.32;;;6.70;;
16254;SDS011;8235;52.198;9.904;2023-05-15T09:42:04;6.47;;;5.88;;
16254;SDS011;8235;52.198;9.904;2023-05-15T09:44:31;6.93;;;6.32;;
16254;SDS011;8235;52.198;9.904;2023-05-15T09:46:58;6.85;;;6.22;;
16254;SDS011;8235;52.198;9.904;2023-05-15T09:49:26;6.93;;;6.32;;
16254;SDS011;8235;52.198;9.904;2023-05-15T09:51:53;6.07;;;5.45;;
16254;SDS011;8235;52.198;9.904;2023-05-15T09:54:20;6.25;;;5.47;;
16254;SDS011;8235;52.198;9.904;2023-05-15T09:56:50;8.18;;;5.95;;
16254;SDS011;8235;52.198;9.904;2023-05-15T09:59:17;6.65;;;6.00;;
16254;SDS011;8235;52.198;9.904;2023-05-15T10:01:46;8.68;;;6.00;;
16254;SDS011;8235;52.198;9.904;2023-05-15T10:04:14;6.10;;;5.45;;
16254;SDS011;8235;52.198;9.904;2023-05-15T10:06:41;6.70;;;5.63;;
16254;SDS011;8235;52.198;9.904;2023-05-15T10:09:09;7.25;;;6.55;;
16254;SDS011;8235;52.198;9.904;2023-05-15T10:11:37;6.28;;;5.78;;
16254;SDS011;8235;52.198;9.904;2023-05-15T10:14:06;7.60;;;6.50;;
16254;SDS011;8235;52.198;9.904;2023-05-15T10:16:34;6.93;;;6.22;;
16254;SDS011;8235;52.198;9.904;2023-05-15T10:19:02;6.80;;;5.60;;
16254;SDS011;8235;52.198;9.904;2023-05-15T10:21:30;6.90;;;6.07;;
16254;SDS011;8235;52.198;9.904;2023-05-15T10:23:58;7.50;;;6.68;;
16254;SDS011;8235;52.198;9.904;2023-05-15T10:26:28;8.05;;;6.70;;
16254;SDS011;8235;52.198;9.904;2023-05-15T10:29:00;8.75;;;6.80;;
16254;SDS011;8235;52.198;9.904;2023-05-15T10:31:31;9.10;;;7.22;;
16254;SDS011;8235;52.198;9.904;2023-05-15T10:33:58;7.28;;;6.57;;
16254;SDS011;8235;52.198;9.904;2023-05-15T10:36:26;7.93;;;6.90;;
16254;SDS011;8235;52.198;9.904;2023-05-15T10:38:53;7.88;;;7.13;;
16254;SDS011;8235;52.198;9.904;2023-05-15T10:41:19;9.93;;;8.05;;
16254;SDS011;8235;52.198;9.904;2023-05-15T10:43:47;10.52;;;8.23;;
16254;SDS011;8235;52.198;9.904;2023-05-15T10:46:14;8.55;;;7.75;;
16254;SDS011;8235;52.198;9.904;2023-05-15T10:48:43;7.22;;;6.63;;
16254;SDS011;8235;52.198;9.904;2023-05-15T10:51:13;7.68;;;6.97;;
16254;SDS011;8235;52.198;9.904;2023-05-15T10:53:41;7.80;;;7.13;;
16254;SDS011;8235;52.198;9.904;2023-05-15T10:56:11;7.28;;;6.63;;
16254;SDS011;8235;52.198;9.904;2023-05-15T10:58:38;8.30;;;7.50;;
16254;SDS011;8235;52.198;9.904;2023-05-15T11:01:06;7.65;;;6.88;;
16254;SDS011;8235;52.198;9.904;2023-05-15T11:03:54;11.18;;;6.70;;
16254;SDS011;8235;52.198;9.904;2023-05-15T11:06:30;9.15;;;7.85;;
16254;SDS011;8235;52.198;9.904;2023-05-15T11:09:09;8.57;;;7.78;;
16254;SDS011;8235;52.198;9.904;2023-05-15T11:12:00;8.18;;;7.47;;
16254;SDS011;8235;52.198;9.904;2023-05-15T11:14:27;9.60;;;7.85;;
16254;SDS011;8235;52.198;9.904;2023-05-15T11:16:55;9.05;;;7.40;;
16254;SDS011;8235;52.198;9.904;2023-05-15T11:19:27;8.38;;;6.93;;
16254;SDS011;8235;52.198;9.904;2023-05-15T11:21:57;7.90;;;6.82;;
16254;SDS011;8235;52.198;9.904;2023-05-15T11:24:27;7.05;;;6.38;;
16254;SDS011;8235;52.198;9.904;2023-05-15T11:26:58;8.02;;;6.70;;
16254;SDS011;8235;52.198;9.904;2023-05-15T11:29:25;7.75;;;6.35;;
16254;SDS011;8235;52.198;9.904;2023-05-15T11:31:52;7.80;;;6.75;;
16254;SDS011;8235;52.198;9.904;2023-05-15T11:34:29;11.10;;;6.32;;
16254;SDS011;8235;52.198;9.904;2023-05-15T11:36:56;6.75;;;6.15;;
16254;SDS011;8235;52.198;9.904;2023-05-15T11:39:24;7.10;;;6.50;;
16254;SDS011;8235;52.198;9.904;2023-05-15T11:41:51;7.03;;;5.45;;
16254;SDS011;8235;52.198;9.904;2023-05-15T11:44:19;9.95;;;5.65;;
16254;SDS011;8235;52.198;9.904;2023-05-15T11:46:47;7.55;;;6.85;;
16254;SDS011;8235;52.198;9.904;2023-05-15T11:49:13;7.70;;;5.85;;
16254;SDS011;8235;52.198;9.904;2023-05-15T11:51:42;9.70;;;5.90;;
16254;SDS011;8235;52.198;9.904;2023-05-15T11:54:09;6.63;;;5.75;;
16254;SDS011;8235;52.198;9.904;2023-05-15T11:56:40;5.95;;;5.40;;
16254;SDS011;8235;52.198;9.904;2023-05-15T11:59:08;5.60;;;5.07;;
16254;SDS011;8235;52.198;9.904;2023-05-15T12:01:38;7.30;;;5.28;;
16254;SDS011;8235;52.198;9.904;2023-05-15T12:04:10;7.90;;;5.05;;
16254;SDS011;8235;52.198;9.904;2023-05-15T12:06:38;8.57;;;5.10;;
16254;SDS011;8235;52.198;9.904;2023-05-15T12:09:06;7.25;;;4.65;;
16254;SDS011;8235;52.198;9.904;2023-05-15T12:11:38;7.75;;;4.97;;
16254;SDS011;8235;52.198;9.904;2023-05-15T12:14:04;5.53;;;4.90;;
16254;SDS011;8235;52.198;9.904;2023-05-15T12:16:35;4.70;;;4.03;;
16254;SDS011;8235;52.198;9.904;2023-05-15T12:19:02;4.85;;;4.35;;
16254;SDS011;8235;52.198;9.904;2023-05-15T12:21:29;4.72;;;4.32;;
16254;SDS011;8235;52.198;9.904;2023-05-15T12:23:56;5.18;;;4.68;;
16254;SDS011;8235;52.198;9.904;2023-05-15T12:26:24;6.15;;;5.15;;
16254;SDS011;8235;52.198;9.904;2023-05-15T12:28:52;8.50;;;6.28;;
16254;SDS011;8235;52.198;9.904;2023-05-15T12:31:19;6.30;;;5.70;;
16254;SDS011;8235;52.198;9.904;2023-05-15T12:33:46;6.32;;;5.65;;
16254;SDS011;8235;52.198;9.904;2023-05-15T12:36:13;6.25;;;5.65;;
16254;SDS011;8235;52.198;9.904;2023-05-15T12:38:40;6.60;;;5.85;;
16254;SDS011;8235;52.198;9.904;2023-05-15T12:41:09;6.35;;;5.22;;
16254;SDS011;8235;52.198;9.904;2023-05-15T12:43:37;5.22;;;4.72;;
16254;SDS011;8235;52.198;9.904;2023-05-15T12:46:05;4.88;;;4.32;;
16254;SDS011;8235;52.198;9.904;2023-05-15T12:48:31;5.93;;;4.95;;
16254;SDS011;8235;52.198;9.904;2023-05-15T12:51:02;7.47;;;5.47;;
16254;SDS011;8235;52.198;9.904;2023-05-15T12:53:30;7.32;;;5.38;;
16254;SDS011;8235;52.198;9.904;2023-05-15T12:55:58;7.65;;;5.57;;
16254;SDS011;8235;52.198;9.904;2023-05-15T12:58:24;6.32;;;5.63;;
16254;SDS011;8235;52.198;9.904;2023-05-15T13:00:52;7.38;;;6.18;;
16254;SDS011;8235;52.198;9.904;2023-05-15T13:03:19;11.00;;;6.93;;
16254;SDS011;8235;52.198;9.904;2023-05-15T13:05:46;11.02;;;7.28;;
16254;SDS011;8235;52.198;9.904;2023-05-15T13:08:14;8.25;;;7.47;;
16254;SDS011;8235;52.198;9.904;2023-05-15T13:10:42;10.20;;;6.25;;
16254;SDS011;8235;52.198;9.904;2023-05-15T13:13:08;6.20;;;5.55;;
16254;SDS011;8235;52.198;9.904;2023-05-15T13:15:35;5.72;;;5.00;;
16254;SDS011;8235;52.198;9.904;2023-05-15T13:18:05;6.60;;;5.88;;
16254;SDS011;8235;52.198;9.904;2023-05-15T13:20:35;6.90;;;5.95;;
16254;SDS011;8235;52.198;9.904;2023-05-15T13:23:03;6.53;;;5.93;;
16254;SDS011;8235;52.198;9.904;2023-05-15T13:25:29;8.75;;;6.00;;
16254;SDS011;8235;52.198;9.904;2023-05-15T13:27:57;6.20;;;5.68;;
16254;SDS011;8235;52.198;9.904;2023-05-15T13:30:24;6.65;;;5.28;;
16254;SDS011;8235;52.198;9.904;2023-05-15T13:32:51;6.80;;;5.60;;
16254;SDS011;8235;52.198;9.904;2023-05-15T13:35:19;5.40;;;4.90;;
16254;SDS011;8235;52.198;9.904;2023-05-15T13:37:45;7.05;;;5.38;;
16254;SDS011;8235;52.198;9.904;2023-05-15T13:40:13;6.35;;;5.07;;
16254;SDS011;8235;52.198;9.904;2023-05-15T13:42:40;5.93;;;5.10;;
16254;SDS011;8235;52.198;9.904;2023-05-15T13:45:10;6.97;;;5.20;;
16254;SDS011;8235;52.198;9.904;2023-05-15T13:47:37;7.18;;;5.15;;
16254;SDS011;8235;52.198;9.904;2023-05-15T13:50:04;5.25;;;4.78;;
16254;SDS011;8235;52.198;9.904;2023-05-15T13:52:33;8.30;;;4.53;;
16254;SDS011;8235;52.198;9.904;2023-05-15T13:55:00;5.75;;;4.43;;
16254;SDS011;8235;52.198;9.904;2023-05-15T13:57:28;8.20;;;4.90;;
16254;SDS011;8235;52.198;9.904;2023-05-15T13:59:55;6.80;;;4.95;;
16254;SDS011;8235;52.198;9.904;2023-05-15T14:02:21;5.20;;;4.30;;
16254;SDS011;8235;52.198;9.904;2023-05-15T14:04:50;5.03;;;4.45;;
16254;SDS011;8235;52.198;9.904;2023-05-15T14:07:16;7.05;;;4.50;;
16254;SDS011;8235;52.198;9.904;2023-05-15T14:09:44;7.30;;;4.85;;
16254;SDS011;8235;52.198;9.904;2023-05-15T14:12:11;5.18;;;4.68;;
16254;SDS011;8235;52.198;9.904;2023-05-15T14:14:37;5.47;;;4.97;;
16254;SDS011;8235;52.198;9.904;2023-05-15T14:17:06;5.53;;;5.03;;
16254;SDS011;8235;52.198;9.904;2023-05-15T14:19:51;7.22;;;5.00;;
16254;SDS011;8235;52.198;9.904;2023-05-15T14:22:24;5.50;;;5.00;;
16254;SDS011;8235;52.198;9.904;2023-05-15T14:25:28;7.28;;;5.60;;
16254;SDS011;8235;52.198;9.904;2023-05-15T14:27:56;6.28;;;5.68;;
16254;SDS011;8235;52.198;9.904;2023-05-15T14:30:23;5.13;;;4.38;;
16254;SDS011;8235;52.198;9.904;2023-05-15T14:32:58;4.80;;;4.30;;
16254;SDS011;8235;52.198;9.904;2023-05-15T14:35:25;4.65;;;4.25;;
16254;SDS011;8235;52.198;9.904;2023-05-15T14:37:53;4.80;;;3.95;;
16254;SDS011;8235;52.198;9.904;2023-05-15T14:40:24;4.28;;;3.80;;
16254;SDS011;8235;52.198;9.904;2023-05-15T14:43:09;5.15;;;4.45;;
16254;SDS011;8235;52.198;9.904;2023-05-15T14:49:03;4.88;;;4.03;;
16254;SDS011;8235;52.198;9.904;2023-05-15T14:58:36;5.65;;;4.95;;
16254;SDS011;8235;52.198;9.904;2023-05-15T15:01:05;6.65;;;4.97;;
16254;SDS011;8235;52.198;9.904;2023-05-15T15:03:45;11.10;;;4.40;;
16254;SDS011;8235;52.198;9.904;2023-05-15T15:06:12;4.10;;;3.70;;
16254;SDS011;8235;52.198;9.904;2023-05-15T15:08:44;3.97;;;3.35;;
16254;SDS011;8235;52.198;9.904;2023-05-15T15:11:13;3.78;;;3.47;;
16254;SDS011;8235;52.198;9.904;2023-05-15T15:13:56;4.07;;;3.78;;
16254;SDS011;8235;52.198;9.904;2023-05-15T15:16:25;4.10;;;3.80;;